Time;durP1;ratioP1;P1;durP2;ratioP2;P2;SDS_P1;SDS_P2;PMS_P1;PMS_P2;Temp;Humidity;BMP_temperature;BMP_pressure;BME280_temperature;BME280_humidity;BME280_pressure;Samples;Min_cycle;Max_cycle;Signal;HPM_P1;HPM_P2
2022/05/13 00:01:22;;;;;;;46.50;13.95;;;;;;;;;;4991972;28;20145;-44
2022/05/13 00:03:49;;;;;;;57.53;15.38;;;;;;;;;;4992727;28;20049;-46
2022/05/13 00:06:16;;;;;;;62.97;18.83;;;;;;;;;;4991325;28;20030;-46
2022/05/13 00:08:43;;;;;;;79.95;20.90;;;;;;;;;;4974606;28;20034;-44
2022/05/13 00:11:11;;;;;;;87.72;24.40;;;;;;;;;;4979298;28;20857;-48
2022/05/13 00:13:38;;;;;;;109.63;25.70;;;;;;;;;;5004473;28;20845;-51
2022/05/13 00:16:05;;;;;;;96.80;25.27;;;;;;;;;;5006254;28;20033;-50
2022/05/13 00:18:32;;;;;;;92.55;25.70;;;;;;;;;;5011767;28;20036;-43
2022/05/13 00:21:00;;;;;;;88.55;28.52;;;;;;;;;;5010976;28;20565;-47
2022/05/13 00:23:27;;;;;;;87.78;26.88;;;;;;;;;;5006934;28;20377;-44
2022/05/13 00:25:54;;;;;;;91.82;28.77;;;;;;;;;;5010963;28;20037;-48
2022/05/13 00:28:21;;;;;;;81.75;27.27;;;;;;;;;;5010461;28;20088;-44
2022/05/13 00:30:48;;;;;;;79.05;25.48;;;;;;;;;;5010834;28;20646;-44
2022/05/13 00:33:16;;;;;;;83.93;25.55;;;;;;;;;;5008638;28;20034;-45
2022/05/13 00:35:43;;;;;;;85.18;27.83;;;;;;;;;;4999130;28;20085;-50
2022/05/13 00:38:10;;;;;;;88.45;27.50;;;;;;;;;;5005067;28;20084;-45
2022/05/13 00:40:38;;;;;;;76.93;24.75;;;;;;;;;;5009210;28;20044;-51
2022/05/13 00:43:07;;;;;;;78.70;25.10;;;;;;;;;;5008410;28;20041;-47
2022/05/13 00:45:34;;;;;;;75.63;26.00;;;;;;;;;;5009311;28;20452;-49
2022/05/13 00:48:01;;;;;;;78.20;26.20;;;;;;;;;;5007980;28;20022;-51
2022/05/13 00:50:32;;;;;;;69.20;25.20;;;;;;;;;;5008016;28;20080;-49
2022/05/13 00:53:00;;;;;;;74.60;25.77;;;;;;;;;;5008659;28;20032;-49
2022/05/13 00:55:34;;;;;;;60.50;23.77;;;;;;;;;;5008558;28;20496;-47
2022/05/13 00:58:02;;;;;;;62.60;24.88;;;;;;;;;;5008871;28;20416;-53
2022/05/13 01:00:29;;;;;;;61.55;22.88;;;;;;;;;;5009359;28;20026;-49
2022/05/13 01:02:57;;;;;;;55.22;21.83;;;;;;;;;;4991431;28;20054;-49
2022/05/13 01:05:24;;;;;;;66.35;22.30;;;;;;;;;;5008509;28;20109;-52
2022/05/13 01:07:52;;;;;;;64.70;22.67;;;;;;;;;;5009349;28;20030;-54
2022/05/13 01:10:21;;;;;;;53.28;20.27;;;;;;;;;;5008613;28;20038;-51
2022/05/13 01:12:52;;;;;;;54.58;21.42;;;;;;;;;;5009400;28;20104;-44
2022/05/13 01:15:21;;;;;;;54.80;20.42;;;;;;;;;;5008654;28;20048;-51
2022/05/13 01:18:07;;;;;;;46.13;20.20;;;;;;;;;;5008643;28;20026;-54
2022/05/13 01:20:52;;;;;;;45.00;20.02;;;;;;;;;;4991194;28;20029;-47
2022/05/13 01:23:21;;;;;;;53.60;20.08;;;;;;;;;;5004285;28;20672;-49
2022/05/13 01:25:50;;;;;;;48.50;18.80;;;;;;;;;;5005112;28;20026;-48
2022/05/13 01:28:20;;;;;;;46.17;18.35;;;;;;;;;;4999683;28;20046;-51
2022/05/13 01:30:49;;;;;;;48.42;18.48;;;;;;;;;;5004406;28;20432;-52
2022/05/13 01:33:17;;;;;;;40.42;17.52;;;;;;;;;;5001248;28;20035;-53
2022/05/13 01:35:46;;;;;;;49.20;17.40;;;;;;;;;;5006476;28;20471;-50
2022/05/13 01:38:14;;;;;;;41.42;16.75;;;;;;;;;;4992059;28;20025;-47
2022/05/13 01:40:42;;;;;;;36.85;16.13;;;;;;;;;;5009266;28;20543;-46
2022/05/13 01:43:09;;;;;;;38.33;15.35;;;;;;;;;;5009302;28;20515;-48
2022/05/13 01:45:38;;;;;;;40.35;15.20;;;;;;;;;;5009197;28;20554;-49
2022/05/13 01:48:06;;;;;;;42.65;15.65;;;;;;;;;;4985354;28;20034;-54
2022/05/13 01:50:34;;;;;;;40.60;14.93;;;;;;;;;;4981698;28;20080;-49
2022/05/13 01:53:02;;;;;;;33.58;14.60;;;;;;;;;;5002383;28;20142;-53
2022/05/13 01:55:30;;;;;;;34.08;14.70;;;;;;;;;;5001946;28;20120;-53
2022/05/13 01:57:57;;;;;;;34.17;14.70;;;;;;;;;;5005598;28;20029;-50
2022/05/13 02:00:26;;;;;;;36.15;13.77;;;;;;;;;;5012748;28;20553;-52
2022/05/13 02:05:47;;;;;;;34.95;14.48;;;;;;;;;;4979914;28;20487;-51
2022/05/13 02:08:15;;;;;;;33.42;13.23;;;;;;;;;;5013891;28;20542;-47
2022/05/13 02:10:44;;;;;;;32.35;12.57;;;;;;;;;;5013080;28;20042;-53
2022/05/13 02:13:12;;;;;;;33.95;13.45;;;;;;;;;;5013350;28;20040;-51
2022/05/13 02:15:40;;;;;;;33.35;13.48;;;;;;;;;;5013480;28;20037;-48
2022/05/13 02:18:08;;;;;;;30.88;13.73;;;;;;;;;;5013104;28;20043;-48
2022/05/13 02:20:36;;;;;;;34.00;13.07;;;;;;;;;;5013566;28;20641;-49
2022/05/13 02:23:04;;;;;;;29.80;13.05;;;;;;;;;;5013686;28;20061;-48
2022/05/13 02:25:33;;;;;;;40.58;14.20;;;;;;;;;;5012873;28;20029;-47
2022/05/13 02:28:01;;;;;;;32.05;12.57;;;;;;;;;;5012669;28;20156;-50
2022/05/13 02:30:29;;;;;;;30.88;11.52;;;;;;;;;;5013452;28;20113;-49
2022/05/13 02:32:56;;;;;;;27.90;11.68;;;;;;;;;;5014225;28;20030;-48
2022/05/13 02:35:23;;;;;;;26.05;12.23;;;;;;;;;;5014364;28;20471;-51
2022/05/13 02:37:50;;;;;;;30.15;12.25;;;;;;;;;;5014884;28;20526;-48
2022/05/13 02:40:18;;;;;;;35.10;11.23;;;;;;;;;;5013622;28;20112;-48
2022/05/13 02:42:45;;;;;;;30.35;11.05;;;;;;;;;;5013774;28;20080;-51
2022/05/13 02:45:13;;;;;;;27.58;11.32;;;;;;;;;;5014695;28;20064;-51
2022/05/13 02:47:41;;;;;;;27.40;11.20;;;;;;;;;;5014861;28;20121;-47
2022/05/13 02:50:18;;;;;;;28.55;11.60;;;;;;;;;;5014455;28;20026;-51
2022/05/13 02:52:45;;;;;;;31.52;11.65;;;;;;;;;;5013870;28;20431;-52
2022/05/13 02:55:13;;;;;;;23.30;11.60;;;;;;;;;;5014544;28;20041;-52
2022/05/13 02:57:40;;;;;;;23.75;10.60;;;;;;;;;;5014141;28;20034;-49
2022/05/13 03:00:08;;;;;;;23.67;10.80;;;;;;;;;;5014056;28;20120;-50
2022/05/13 03:02:35;;;;;;;30.17;10.88;;;;;;;;;;5014309;28;20037;-51
2022/05/13 03:05:02;;;;;;;22.58;9.63;;;;;;;;;;5014406;28;20033;-49
2022/05/13 03:07:29;;;;;;;25.52;9.60;;;;;;;;;;5014046;28;20749;-51
2022/05/13 03:09:56;;;;;;;25.67;9.82;;;;;;;;;;5012784;28;20032;-53
2022/05/13 03:12:23;;;;;;;22.38;9.57;;;;;;;;;;5014199;28;20029;-51
2022/05/13 03:14:50;;;;;;;23.67;9.40;;;;;;;;;;5013928;28;20030;-51
2022/05/13 03:17:17;;;;;;;23.17;10.38;;;;;;;;;;5013766;28;20037;-52
2022/05/13 03:19:44;;;;;;;23.70;9.95;;;;;;;;;;5013714;28;20026;-50
2022/05/13 03:22:11;;;;;;;24.65;8.85;;;;;;;;;;5014008;28;20033;-51
2022/05/13 03:24:38;;;;;;;21.73;8.65;;;;;;;;;;5013133;28;20477;-53
2022/05/13 03:27:07;;;;;;;22.38;9.63;;;;;;;;;;5014175;28;20471;-48
2022/05/13 03:29:35;;;;;;;23.48;8.93;;;;;;;;;;5013385;28;20045;-52
2022/05/13 03:32:05;;;;;;;24.52;8.68;;;;;;;;;;5013791;28;20476;-49
2022/05/13 03:34:32;;;;;;;22.35;8.35;;;;;;;;;;5014030;28;20025;-49
2022/05/13 03:36:59;;;;;;;21.75;8.90;;;;;;;;;;5013047;28;20084;-50
2022/05/13 03:39:26;;;;;;;20.67;8.52;;;;;;;;;;5013375;28;20029;-48
2022/05/13 03:41:55;;;;;;;16.00;7.55;;;;;;;;;;5013692;28;20085;-50
2022/05/13 03:44:22;;;;;;;18.33;7.85;;;;;;;;;;5013187;28;20076;-52
2022/05/13 03:46:49;;;;;;;20.05;7.45;;;;;;;;;;5013002;28;20057;-53
2022/05/13 03:49:17;;;;;;;17.98;7.75;;;;;;;;;;5013697;28;20029;-48
2022/05/13 03:51:44;;;;;;;18.42;7.88;;;;;;;;;;5013259;28;20021;-52
2022/05/13 03:54:11;;;;;;;19.02;8.02;;;;;;;;;;5013383;28;20060;-50
2022/05/13 03:56:38;;;;;;;15.82;7.88;;;;;;;;;;5013218;28;20482;-49
2022/05/13 03:59:05;;;;;;;18.58;7.45;;;;;;;;;;5013127;28;20112;-51
2022/05/13 04:01:32;;;;;;;14.68;6.82;;;;;;;;;;5013616;28;20060;-48
2022/05/13 04:03:59;;;;;;;16.60;6.95;;;;;;;;;;5013143;28;20052;-52
2022/05/13 04:09:11;;;;;;;15.10;7.13;;;;;;;;;;5013274;28;20404;-53
2022/05/13 04:11:39;;;;;;;15.25;6.43;;;;;;;;;;5012935;28;20132;-49
2022/05/13 04:16:53;;;;;;;18.55;6.60;;;;;;;;;;5012930;28;20570;-52
2022/05/13 04:19:20;;;;;;;12.63;5.80;;;;;;;;;;5012888;28;20057;-51
2022/05/13 04:21:47;;;;;;;15.65;6.70;;;;;;;;;;5012456;28;20025;-50
2022/05/13 04:24:18;;;;;;;14.27;5.82;;;;;;;;;;5012607;28;20034;-48
2022/05/13 04:26:45;;;;;;;13.93;5.93;;;;;;;;;;5013072;28;20121;-52
2022/05/13 04:29:12;;;;;;;15.93;6.25;;;;;;;;;;5012972;28;20076;-51
2022/05/13 04:31:41;;;;;;;17.70;6.22;;;;;;;;;;5012630;28;20026;-48
2022/05/13 04:34:08;;;;;;;15.60;6.38;;;;;;;;;;5012667;28;20111;-49
2022/05/13 04:36:35;;;;;;;12.43;5.63;;;;;;;;;;5012643;28;20046;-52
2022/05/13 04:39:02;;;;;;;14.82;6.45;;;;;;;;;;5012156;28;20041;-53
2022/05/13 04:44:15;;;;;;;14.52;6.20;;;;;;;;;;5012493;28;20036;-52
2022/05/13 04:46:42;;;;;;;13.05;5.93;;;;;;;;;;5012385;28;20512;-53
2022/05/13 04:49:10;;;;;;;11.32;5.55;;;;;;;;;;5012309;28;20049;-50
2022/05/13 04:51:37;;;;;;;11.15;5.70;;;;;;;;;;5012715;28;20041;-52
2022/05/13 04:54:05;;;;;;;13.40;5.45;;;;;;;;;;5012567;28;20029;-51
2022/05/13 04:56:32;;;;;;;12.20;5.32;;;;;;;;;;5011590;28;20046;-51
2022/05/13 04:58:59;;;;;;;13.95;5.53;;;;;;;;;;5012214;28;20047;-52
2022/05/13 05:01:27;;;;;;;15.02;5.70;;;;;;;;;;5012249;28;20037;-52
2022/05/13 05:03:54;;;;;;;12.60;5.55;;;;;;;;;;5012643;28;20036;-51
2022/05/13 05:06:21;;;;;;;12.02;4.93;;;;;;;;;;5011917;28;20029;-51
2022/05/13 05:08:49;;;;;;;12.00;5.50;;;;;;;;;;5011807;28;20403;-53
2022/05/13 05:11:16;;;;;;;12.23;5.20;;;;;;;;;;5012311;28;20080;-47
2022/05/13 05:13:47;;;;;;;11.23;5.43;;;;;;;;;;5012369;28;20860;-52
2022/05/13 05:16:21;;;;;;;10.98;5.15;;;;;;;;;;5011487;28;20491;-53
2022/05/13 05:18:49;;;;;;;12.10;5.30;;;;;;;;;;5012344;28;20503;-49
2022/05/13 05:21:17;;;;;;;13.25;5.30;;;;;;;;;;5011466;28;20041;-50
2022/05/13 05:23:45;;;;;;;12.05;5.13;;;;;;;;;;5012300;28;20030;-48
2022/05/13 05:26:12;;;;;;;9.70;4.50;;;;;;;;;;5012285;28;20045;-50
2022/05/13 05:28:39;;;;;;;14.80;5.50;;;;;;;;;;5011104;28;20081;-48
2022/05/13 05:31:07;;;;;;;10.35;4.80;;;;;;;;;;5011554;28;20518;-53
2022/05/13 05:33:34;;;;;;;12.18;5.40;;;;;;;;;;5013431;28;20030;-51
2022/05/13 05:36:01;;;;;;;10.95;4.65;;;;;;;;;;5015353;28;20034;-51
2022/05/13 05:38:28;;;;;;;13.27;5.15;;;;;;;;;;5015596;28;20057;-50
2022/05/13 05:40:55;;;;;;;8.95;4.45;;;;;;;;;;5016114;28;20040;-48
2022/05/13 05:43:22;;;;;;;10.40;5.05;;;;;;;;;;5016049;28;20064;-48
2022/05/13 05:45:49;;;;;;;10.80;4.85;;;;;;;;;;5015017;28;20030;-51
2022/05/13 05:48:24;;;;;;;8.77;4.55;;;;;;;;;;5015432;28;20034;-50
2022/05/13 05:50:51;;;;;;;11.52;5.28;;;;;;;;;;5016097;28;20084;-48
2022/05/13 05:58:52;;;;;;;9.77;4.60;;;;;;;;;;5015751;28;20072;-51
2022/05/13 06:01:19;;;;;;;8.05;4.75;;;;;;;;;;5015669;28;20487;-49
2022/05/13 06:03:46;;;;;;;11.48;5.32;;;;;;;;;;5014925;28;20561;-47
2022/05/13 06:06:13;;;;;;;10.93;5.10;;;;;;;;;;5015707;28;20034;-51
2022/05/13 06:08:40;;;;;;;10.05;5.28;;;;;;;;;;5014856;28;20037;-52
2022/05/13 06:11:09;;;;;;;8.25;4.68;;;;;;;;;;5015775;28;20025;-49
2022/05/13 06:13:36;;;;;;;10.52;4.38;;;;;;;;;;5014651;28;20030;-52
2022/05/13 06:16:03;;;;;;;8.63;4.53;;;;;;;;;;5015169;28;20715;-52
2022/05/13 06:18:30;;;;;;;10.38;5.18;;;;;;;;;;5015253;28;20065;-51
2022/05/13 06:20:57;;;;;;;7.32;4.28;;;;;;;;;;5014348;28;20037;-53
2022/05/13 06:23:25;;;;;;;10.23;5.13;;;;;;;;;;5014988;28;20050;-52
2022/05/13 06:25:52;;;;;;;8.77;4.88;;;;;;;;;;5014843;28;20030;-52
2022/05/13 06:28:19;;;;;;;9.40;5.22;;;;;;;;;;4997444;28;20136;-48
2022/05/13 06:30:46;;;;;;;10.40;4.47;;;;;;;;;;5014346;28;20026;-44
2022/05/13 06:33:12;;;;;;;12.10;4.85;;;;;;;;;;5015325;28;20045;-45
2022/05/13 06:35:41;;;;;;;8.77;4.40;;;;;;;;;;5014548;28;20112;-47
2022/05/13 06:38:09;;;;;;;9.48;4.05;;;;;;;;;;5014570;28;20034;-45
2022/05/13 06:40:36;;;;;;;9.68;5.05;;;;;;;;;;5015285;28;20034;-48
2022/05/13 06:43:03;;;;;;;9.25;5.13;;;;;;;;;;5014133;28;20080;-46
2022/05/13 06:45:30;;;;;;;7.93;4.80;;;;;;;;;;5014800;28;20053;-49
2022/05/13 06:47:57;;;;;;;7.32;4.32;;;;;;;;;;5014131;28;20034;-45
2022/05/13 06:50:25;;;;;;;9.77;5.13;;;;;;;;;;5014628;28;20029;-48
2022/05/13 06:52:52;;;;;;;9.63;5.13;;;;;;;;;;5014666;28;20395;-48
2022/05/13 06:55:19;;;;;;;10.35;4.32;;;;;;;;;;5013698;28;20042;-49
2022/05/13 06:57:46;;;;;;;9.15;4.50;;;;;;;;;;5014039;28;20109;-46
2022/05/13 07:00:13;;;;;;;7.00;3.92;;;;;;;;;;5014079;28;20036;-48
2022/05/13 07:02:40;;;;;;;10.30;4.40;;;;;;;;;;5014778;28;20080;-49
2022/05/13 07:05:08;;;;;;;7.88;4.57;;;;;;;;;;5013603;28;20034;-46
2022/05/13 07:07:35;;;;;;;9.38;4.35;;;;;;;;;;5013959;28;20030;-46
2022/05/13 07:10:02;;;;;;;6.68;4.07;;;;;;;;;;5014271;28;20053;-45
2022/05/13 07:12:29;;;;;;;6.95;4.00;;;;;;;;;;5014443;28;20041;-45
2022/05/13 07:14:56;;;;;;;7.35;3.85;;;;;;;;;;5013422;28;20037;-45
2022/05/13 07:17:23;;;;;;;8.85;4.57;;;;;;;;;;5150827;22;20046;-44
2022/05/13 07:19:50;;;;;;;9.18;4.07;;;;;;;;;;5029936;28;20041;-44
2022/05/13 07:22:17;;;;;;;9.80;4.38;;;;;;;;;;5032990;28;20220;-46
2022/05/13 07:24:45;;;;;;;6.53;3.75;;;;;;;;;;5033220;28;20525;-45
2022/05/13 07:27:12;;;;;;;6.35;4.13;;;;;;;;;;5033266;28;20063;-45
2022/05/13 07:29:39;;;;;;;6.72;3.88;;;;;;;;;;5033046;28;20375;-46
2022/05/13 07:32:07;;;;;;;7.03;3.95;;;;;;;;;;5033328;28;20025;-44
2022/05/13 07:34:34;;;;;;;7.00;4.10;;;;;;;;;;5032625;28;20033;-44
2022/05/13 07:37:01;;;;;;;7.18;4.20;;;;;;;;;;5033369;28;20034;-44
2022/05/13 07:42:13;;;;;;;6.63;4.22;;;;;;;;;;5033818;28;20430;-44
2022/05/13 07:44:40;;;;;;;6.43;4.50;;;;;;;;;;5032971;28;20434;-46
2022/05/13 07:47:09;;;;;;;6.15;3.47;;;;;;;;;;5032968;28;20052;-47
2022/05/13 07:49:37;;;;;;;7.32;3.58;;;;;;;;;;5032644;28;20032;-45
2022/05/13 07:52:04;;;;;;;5.47;3.63;;;;;;;;;;5032320;28;20022;-44
2022/05/13 07:54:31;;;;;;;6.30;3.70;;;;;;;;;;5033310;28;20530;-44
2022/05/13 07:56:58;;;;;;;5.90;3.38;;;;;;;;;;5031817;28;20047;-47
2022/05/13 07:59:26;;;;;;;7.22;3.35;;;;;;;;;;5032370;28;20116;-44
2022/05/13 08:01:53;;;;;;;6.07;4.10;;;;;;;;;;5032265;28;20028;-43
2022/05/13 08:04:21;;;;;;;6.75;3.50;;;;;;;;;;5032633;28;20120;-46
2022/05/13 08:06:48;;;;;;;5.45;4.05;;;;;;;;;;5032448;28;20564;-44
2022/05/13 08:09:15;;;;;;;5.68;3.90;;;;;;;;;;5032455;28;20394;-44
2022/05/13 08:11:43;;;;;;;7.75;3.90;;;;;;;;;;5032154;28;20034;-44
2022/05/13 08:14:10;;;;;;;6.10;3.58;;;;;;;;;;5032766;28;20037;-44
2022/05/13 08:16:38;;;;;;;7.38;3.70;;;;;;;;;;5032393;28;20475;-46
2022/05/13 08:19:05;;;;;;;5.15;3.72;;;;;;;;;;5031917;28;20053;-43
2022/05/13 08:21:32;;;;;;;6.13;3.95;;;;;;;;;;5032070;28;20055;-44
2022/05/13 08:24:01;;;;;;;7.47;3.75;;;;;;;;;;5032176;28;20022;-44
2022/05/13 08:26:28;;;;;;;6.10;3.42;;;;;;;;;;5032237;28;20030;-46
2022/05/13 08:28:55;;;;;;;5.15;4.38;;;;;;;;;;5031888;28;20036;-44
2022/05/13 08:31:22;;;;;;;7.78;3.97;;;;;;;;;;5032175;28;20021;-46
2022/05/13 08:33:49;;;;;;;6.70;3.72;;;;;;;;;;5031337;28;20028;-44
2022/05/13 08:36:16;;;;;;;7.00;4.03;;;;;;;;;;5032459;28;20509;-46
2022/05/13 08:38:44;;;;;;;8.98;3.65;;;;;;;;;;5031800;28;20056;-44
2022/05/13 08:41:11;;;;;;;6.03;3.17;;;;;;;;;;5031927;28;20074;-45
2022/05/13 08:43:43;;;;;;;6.20;3.53;;;;;;;;;;5031810;28;20026;-45
2022/05/13 08:46:10;;;;;;;5.55;3.78;;;;;;;;;;5031347;28;20052;-46
2022/05/13 08:48:48;;;;;;;5.75;3.30;;;;;;;;;;5032031;28;20038;-45
2022/05/13 08:51:18;;;;;;;7.35;3.72;;;;;;;;;;5031595;28;20701;-45
2022/05/13 08:54:14;;;;;;;6.13;3.60;;;;;;;;;;5031933;28;20037;-45
2022/05/13 08:56:43;;;;;;;5.65;3.25;;;;;;;;;;5029810;28;20407;-44
2022/05/13 08:59:13;;;;;;;7.80;3.45;;;;;;;;;;5031168;28;20029;-45
2022/05/13 09:01:48;;;;;;;4.90;3.85;;;;;;;;;;5031836;28;20025;-44
2022/05/13 09:04:22;;;;;;;7.03;4.20;;;;;;;;;;5031821;28;20414;-44
2022/05/13 09:06:54;;;;;;;7.32;3.78;;;;;;;;;;5031213;28;20041;-46
2022/05/13 09:09:21;;;;;;;6.00;3.13;;;;;;;;;;5031834;28;20034;-44
2022/05/13 09:11:59;;;;;;;6.43;3.58;;;;;;;;;;5031960;28;20033;-44
2022/05/13 09:14:46;;;;;;;6.20;3.25;;;;;;;;;;5031346;28;20029;-45
2022/05/13 09:17:20;;;;;;;8.32;3.72;;;;;;;;;;5031653;28;20398;-45
2022/05/13 09:19:54;;;;;;;4.18;3.15;;;;;;;;;;5031580;28;20054;-45
2022/05/13 09:22:21;;;;;;;6.57;3.63;;;;;;;;;;5030958;28;20083;-45
2022/05/13 09:24:47;;;;;;;6.25;3.17;;;;;;;;;;5031929;28;20025;-44
2022/05/13 09:27:14;;;;;;;5.78;3.38;;;;;;;;;;5030762;28;20024;-46
2022/05/13 09:29:46;;;;;;;7.65;3.65;;;;;;;;;;5031517;28;20017;-44
2022/05/13 09:32:23;;;;;;;6.43;3.50;;;;;;;;;;5031032;28;20550;-44
2022/05/13 09:34:55;;;;;;;5.55;3.45;;;;;;;;;;5031752;28;20026;-45
2022/05/13 09:37:25;;;;;;;8.07;3.08;;;;;;;;;;5030790;28;20030;-44
2022/05/13 09:40:04;;;;;;;4.38;2.97;;;;;;;;;;5031475;28;20026;-47
2022/05/13 09:42:41;;;;;;;6.28;3.35;;;;;;;;;;5031200;28;20026;-45
2022/05/13 09:45:34;;;;;;;5.72;3.75;;;;;;;;;;5031633;28;20033;-43
2022/05/13 09:48:09;;;;;;;3.88;3.22;;;;;;;;;;5028329;28;20112;-45
2022/05/13 09:50:38;;;;;;;5.40;3.00;;;;;;;;;;5030494;28;20060;-44
2022/05/13 09:53:11;;;;;;;5.97;3.00;;;;;;;;;;5031670;28;20033;-46
2022/05/13 09:55:42;;;;;;;6.05;3.40;;;;;;;;;;5030935;28;20037;-45
2022/05/13 09:58:16;;;;;;;6.83;2.90;;;;;;;;;;5031088;28;20036;-47
2022/05/13 10:00:44;;;;;;;4.40;3.13;;;;;;;;;;5030549;28;20030;-44
2022/05/13 10:03:18;;;;;;;4.95;3.53;;;;;;;;;;5031487;28;20556;-44
2022/05/13 10:05:46;;;;;;;7.03;3.45;;;;;;;;;;5030755;28;20033;-44
2022/05/13 10:08:19;;;;;;;5.38;3.80;;;;;;;;;;5031023;28;20364;-44
2022/05/13 10:13:59;;;;;;;5.20;3.33;;;;;;;;;;5031192;28;20406;-44
2022/05/13 10:16:38;;;;;;;7.20;3.60;;;;;;;;;;5030269;28;20080;-44
2022/05/13 10:19:12;;;;;;;4.40;2.97;;;;;;;;;;5030830;28;20144;-45
2022/05/13 10:21:48;;;;;;;4.43;3.17;;;;;;;;;;5034335;28;20040;-44
2022/05/13 10:24:32;;;;;;;6.35;2.92;;;;;;;;;;5034979;28;20100;-45
2022/05/13 10:27:01;;;;;;;5.47;3.40;;;;;;;;;;5033896;28;20022;-46
2022/05/13 10:29:32;;;;;;;5.10;2.50;;;;;;;;;;5034245;28;20069;-44
2022/05/13 10:32:01;;;;;;;5.97;3.20;;;;;;;;;;5034504;28;20021;-44
2022/05/13 10:34:49;;;;;;;6.18;3.20;;;;;;;;;;5034135;28;20032;-45
2022/05/13 10:37:19;;;;;;;5.40;3.30;;;;;;;;;;5034064;28;20372;-46
2022/05/13 10:40:09;;;;;;;5.63;3.00;;;;;;;;;;5033935;28;20021;-44
2022/05/13 10:42:38;;;;;;;5.82;2.90;;;;;;;;;;5034053;28;20030;-44
2022/05/13 10:45:15;;;;;;;3.95;3.15;;;;;;;;;;5033971;28;20025;-45
2022/05/13 10:47:49;;;;;;;6.65;3.15;;;;;;;;;;5034151;28;20025;-45
2022/05/13 10:50:21;;;;;;;4.10;3.15;;;;;;;;;;5033904;28;20080;-45
2022/05/13 10:52:59;;;;;;;5.13;2.83;;;;;;;;;;5033274;28;20029;-45
2022/05/13 10:55:26;;;;;;;8.25;3.22;;;;;;;;;;5034357;28;20127;-44
2022/05/13 10:58:11;;;;;;;7.30;2.90;;;;;;;;;;5034019;28;20037;-45
2022/05/13 11:00:41;;;;;;;4.95;3.33;;;;;;;;;;5034308;28;20026;-44
2022/05/13 11:03:26;;;;;;;7.35;3.22;;;;;;;;;;5032206;28;20033;-45
2022/05/13 11:06:05;;;;;;;5.25;2.53;;;;;;;;;;5033195;28;20140;-45
2022/05/13 11:08:47;;;;;;;3.75;2.60;;;;;;;;;;5033760;28;20032;-44
2022/05/13 11:11:32;;;;;;;4.65;2.72;;;;;;;;;;5031860;28;20037;-44
2022/05/13 11:14:02;;;;;;;4.90;2.80;;;;;;;;;;5043570;28;20025;-44
2022/05/13 11:16:38;;;;;;;5.75;2.65;;;;;;;;;;5035949;28;20597;-44
2022/05/13 11:19:17;;;;;;;8.13;3.00;;;;;;;;;;5013916;28;20132;-43
2022/05/13 11:21:54;;;;;;;7.55;2.30;;;;;;;;;;5013264;28;20026;-46
2022/05/13 11:27:24;;;;;;;9.07;2.40;;;;;;;;;;5032333;28;20738;-47
2022/05/13 11:29:54;;;;;;;7.07;2.70;;;;;;;;;;5027755;28;20041;-45
2022/05/13 11:32:31;;;;;;;9.35;2.60;;;;;;;;;;5021659;28;20033;-41
2022/05/13 11:34:58;;;;;;;8.30;2.67;;;;;;;;;;5024074;28;20033;-47
2022/05/13 11:37:28;;;;;;;10.45;2.50;;;;;;;;;;5014171;28;20096;-47
2022/05/13 11:39:55;;;;;;;8.30;2.65;;;;;;;;;;5030912;28;20040;-49
2022/05/13 11:42:31;;;;;;;6.05;2.40;;;;;;;;;;5014874;28;20060;-50
2022/05/13 11:45:02;;;;;;;7.00;2.30;;;;;;;;;;5030582;28;20025;-49
2022/05/13 11:47:44;;;;;;;5.90;2.20;;;;;;;;;;5031084;28;20085;-44
2022/05/13 11:50:11;;;;;;;6.32;2.58;;;;;;;;;;5032731;28;20042;-50
2022/05/13 11:52:41;;;;;;;6.20;2.22;;;;;;;;;;5031967;28;20052;-49
2022/05/13 11:55:14;;;;;;;8.07;2.47;;;;;;;;;;5030722;28;20033;-48
2022/05/13 11:57:46;;;;;;;7.72;2.60;;;;;;;;;;5031502;28;20099;-49
2022/05/13 12:00:33;;;;;;;8.10;2.75;;;;;;;;;;5032159;28;20060;-53
2022/05/13 12:03:09;;;;;;;12.85;3.10;;;;;;;;;;5031551;28;20037;-48
2022/05/13 12:06:00;;;;;;;10.90;2.83;;;;;;;;;;5031181;28;20029;-51
2022/05/13 12:08:45;;;;;;;6.60;2.50;;;;;;;;;;5020312;28;20100;-45
2022/05/13 12:11:32;;;;;;;11.27;2.88;;;;;;;;;;5032872;28;20044;-45
2022/05/13 12:14:20;;;;;;;6.18;2.22;;;;;;;;;;4992882;28;20076;-49
2022/05/13 12:16:47;;;;;;;6.72;2.67;;;;;;;;;;5031664;28;20063;-47
2022/05/13 12:19:32;;;;;;;11.02;2.10;;;;;;;;;;5031001;28;20055;-42
2022/05/13 12:22:17;;;;;;;6.25;2.70;;;;;;;;;;5031994;28;20033;-42
2022/05/13 12:25:03;;;;;;;7.80;2.60;;;;;;;;;;5031621;28;20022;-44
2022/05/13 12:27:31;;;;;;;9.00;2.55;;;;;;;;;;5030889;28;20037;-45
2022/05/13 12:30:17;;;;;;;5.95;2.10;;;;;;;;;;5031134;28;20025;-43
2022/05/13 12:32:49;;;;;;;5.30;2.00;;;;;;;;;;5031120;28;20430;-44
2022/05/13 12:38:06;;;;;;;8.00;2.58;;;;;;;;;;5030452;28;20672;-44
2022/05/13 12:40:51;;;;;;;7.93;2.10;;;;;;;;;;5030920;28;20060;-47
2022/05/13 12:43:21;;;;;;;5.22;2.45;;;;;;;;;;5030418;28;20039;-51
2022/05/13 12:46:06;;;;;;;7.65;2.22;;;;;;;;;;5031239;28;20033;-47
2022/05/13 12:48:34;;;;;;;6.03;1.75;;;;;;;;;;5030046;28;20108;-46
2022/05/13 12:51:13;;;;;;;4.07;1.85;;;;;;;;;;5012919;28;20037;-46
2022/05/13 12:53:55;;;;;;;4.10;1.75;;;;;;;;;;5030824;28;20033;-49
2022/05/13 12:56:22;;;;;;;;;;;;;;;;;;5031868;28;20044;-43
2022/05/13 12:58:54;;;;;;;19.10;2.92;;;;;;;;;;5030671;28;20427;-47
2022/05/13 13:01:21;;;;;;;5.30;1.75;;;;;;;;;;5013307;28;20033;-43
2022/05/13 13:03:50;;;;;;;6.43;2.17;;;;;;;;;;5030700;28;20037;-44
2022/05/13 13:06:21;;;;;;;4.78;2.40;;;;;;;;;;5031300;28;20070;-46
2022/05/13 13:08:51;;;;;;;10.00;2.70;;;;;;;;;;5030282;28;20033;-45
2022/05/13 13:11:30;;;;;;;8.88;3.80;;;;;;;;;;5031152;28;20128;-45
2022/05/13 13:14:18;;;;;;;9.73;4.63;;;;;;;;;;5035739;28;20025;-45
2022/05/13 13:16:49;;;;;;;13.90;6.60;;;;;;;;;;5050855;28;20028;-42
2022/05/13 13:19:20;;;;;;;13.32;7.22;;;;;;;;;;5050754;28;20039;-44
2022/05/13 13:21:52;;;;;;;15.52;8.25;;;;;;;;;;5051144;28;20032;-47
2022/05/13 13:24:21;;;;;;;25.23;8.45;;;;;;;;;;5028546;28;20494;-44
2022/05/13 13:26:50;;;;;;;16.88;7.72;;;;;;;;;;5030316;28;20132;-47
2022/05/13 13:29:20;;;;;;;16.60;8.00;;;;;;;;;;5029667;28;20033;-46
2022/05/13 13:31:48;;;;;;;19.00;8.57;;;;;;;;;;5030417;28;20038;-44
2022/05/13 13:34:26;;;;;;;15.57;7.90;;;;;;;;;;5028320;28;20030;-44
2022/05/13 13:36:54;;;;;;;13.30;7.63;;;;;;;;;;5030973;28;20026;-43
2022/05/13 13:39:22;;;;;;;14.93;7.63;;;;;;;;;;5030778;28;20068;-43
2022/05/13 13:41:58;;;;;;;16.77;7.63;;;;;;;;;;5030584;28;20406;-44
2022/05/13 13:44:25;;;;;;;12.32;7.13;;;;;;;;;;5029102;28;20033;-45
2022/05/13 13:46:51;;;;;;;14.35;7.57;;;;;;;;;;5030553;28;20072;-44
2022/05/13 13:49:21;;;;;;;14.23;7.57;;;;;;;;;;5029974;28;20022;-46
2022/05/13 13:51:53;;;;;;;15.45;7.28;;;;;;;;;;5030011;28;20507;-48
2022/05/13 13:54:23;;;;;;;12.52;6.75;;;;;;;;;;5029578;28;20057;-42
2022/05/13 13:56:58;;;;;;;14.98;6.55;;;;;;;;;;5034654;28;20649;-45
2022/05/13 13:59:32;;;;;;;14.73;6.75;;;;;;;;;;5034703;28;20030;-46
2022/05/13 14:02:03;;;;;;;12.38;6.05;;;;;;;;;;5034367;28;20514;-44
2022/05/13 14:04:31;;;;;;;13.40;6.45;;;;;;;;;;5033889;28;20034;-46
2022/05/13 14:07:01;;;;;;;35.17;5.60;;;;;;;;;;5033382;28;20059;-42
2022/05/13 14:09:32;;;;;;;18.30;5.10;;;;;;;;;;5034024;28;20026;-46
2022/05/13 14:11:59;;;;;;;26.35;5.10;;;;;;;;;;5033916;28;20033;-46
2022/05/13 14:14:26;;;;;;;13.63;4.65;;;;;;;;;;5031499;28;20029;-42
2022/05/13 14:17:13;;;;;;;16.27;5.05;;;;;;;;;;5031242;28;20152;-43
2022/05/13 14:19:47;;;;;;;13.52;4.85;;;;;;;;;;5042654;28;20045;-47
2022/05/13 14:22:14;;;;;;;18.92;4.65;;;;;;;;;;5029410;28;20028;-50
2022/05/13 14:24:42;;;;;;;19.00;5.00;;;;;;;;;;5031432;28;20026;-44
2022/05/13 14:27:09;;;;;;;28.92;6.45;;;;;;;;;;5022318;28;20042;-46
2022/05/13 14:29:36;;;;;;;22.92;5.10;;;;;;;;;;5012607;28;20096;-42
2022/05/13 14:32:11;;;;;;;13.68;4.45;;;;;;;;;;5013264;28;20044;-46
2022/05/13 14:34:39;;;;;;;14.25;4.68;;;;;;;;;;5012215;28;20405;-46
2022/05/13 14:37:08;;;;;;;15.63;3.97;;;;;;;;;;5012278;28;20076;-45
2022/05/13 14:39:50;;;;;;;22.25;4.50;;;;;;;;;;5019412;28;20044;-46
2022/05/13 14:42:33;;;;;;;18.60;3.80;;;;;;;;;;5032802;28;20036;-46
2022/05/13 14:45:04;;;;;;;16.70;3.67;;;;;;;;;;5026146;28;20041;-46
2022/05/13 14:47:33;;;;;;;8.43;3.63;;;;;;;;;;5031972;28;20049;-44
2022/05/13 14:50:02;;;;;;;9.35;3.55;;;;;;;;;;5018893;28;20498;-50
2022/05/13 14:52:29;;;;;;;7.68;3.67;;;;;;;;;;5013583;28;20379;-45
2022/05/13 14:54:57;;;;;;;8.75;3.13;;;;;;;;;;5012390;28;20026;-44
2022/05/13 14:57:24;;;;;;;13.40;3.95;;;;;;;;;;4995165;28;20105;-46
2022/05/13 14:59:51;;;;;;;7.93;3.80;;;;;;;;;;5011872;28;20393;-43
2022/05/13 15:02:47;;;;;;;7.55;3.20;;;;;;;;;;5012103;28;20029;-46
2022/05/13 15:05:19;;;;;;;12.05;3.28;;;;;;;;;;5012483;28;20040;-43
2022/05/13 15:07:46;;;;;;;17.52;3.35;;;;;;;;;;5012438;28;20049;-46
2022/05/13 15:10:15;;;;;;;12.27;3.10;;;;;;;;;;5011969;28;20049;-44
2022/05/13 15:12:42;;;;;;;12.13;3.20;;;;;;;;;;5013149;28;20026;-44
2022/05/13 15:15:12;;;;;;;10.40;3.33;;;;;;;;;;5012003;28;20083;-43
2022/05/13 15:17:49;;;;;;;9.02;3.05;;;;;;;;;;5012061;28;20080;-48
2022/05/13 15:20:17;;;;;;;10.38;2.80;;;;;;;;;;5011125;28;20793;-47